Flight Track Log - Related Links

Times and Time Zones

All times are in EDT time to prevent confusion due to time zone crossing. See the SWA1725 flight status page for this flight to view local times or setup timezone preferences in your user account.

Time Position Orientation Groundspeed Altitude Reporting Facility
EDT Latitude Longitude Course Direction KTS MPH feet Rate Location/Type
Wed 10:18:43 PM 41.8000 -87.7333 180° South 133 153 2,000  Level Chicago TRACON
Wed 10:19:43 PM 41.7500 -87.6833 143° Southeast 207 238 3,300 2,250 Climbing Chicago TRACON
Wed 10:21:47 PM 41.6292 -87.7017 186° South 259 298 8,900 2,789 Climbing Chicago Center
Wed 10:22:48 PM 41.5681 -87.7519 212° Southwest 260 299 11,900 1,951 Climbing Chicago Center
Wed 10:23:50 PM 41.4953 -87.7617 186° South 281 323 12,900 2,146 Climbing Chicago Center
Wed 10:24:00 PM 41.1634 -87.8833 180° South  Level FlightAware Approximate
Wed 10:24:51 PM 41.4183 -87.7308 163° South 287 330 16,300  Level Chicago Center
Wed 10:25:52 PM 41.3381 -87.7000 164° South 295 339 19,700 3,366 Climbing Chicago Center
Wed 10:26:54 PM 41.2322 -87.6803 172° South 318 366 23,200 2,976 Climbing Chicago Center
Wed 10:27:55 PM 41.1417 -87.6417 162° South 354 407 25,800 2,410 Climbing Chicago Center
Wed 10:28:56 PM 41.0567 -87.5706 148° Southeast 362 417 28,100 2,049 Climbing Chicago Center
Wed 10:29:58 PM 40.9664 -87.4944 148° Southeast 382 440 30,000 927 Climbing Chicago Center
Wed 10:30:59 PM 40.8672 -87.4142 149° Southeast 414 476 30,000  Level Chicago Center
Wed 10:32:01 PM 40.7628 -87.3347 150° Southeast 434 499 30,000  Level Chicago Center
Wed 10:33:02 PM 40.6586 -87.2561 150° Southeast 433 498 30,000 393 Level Chicago Center
Wed 10:34:03 PM 40.5533 -87.1744 149° Southeast 437 503 30,800 1,171 Climbing Chicago Center
Wed 10:35:05 PM 40.4461 -87.0908 149° Southeast 445 512 32,400 1,756 Climbing Chicago Center
Wed 10:36:06 PM 40.3003 -87.0678 173° South 438 504 34,400 1,918 Climbing Chicago Center
Wed 10:37:07 PM 40.1803 -87.0600 177° South 434 499 36,300 1,756 Climbing Chicago Center
Wed 10:38:09 PM 40.0611 -87.0533 178° South 429 494 38,000 1,706 Climbing Chicago Center
Wed 10:38:56 PM 39.9833 -87.0486 177° South 426 490 39,400 1,667 Climbing Indianapolis Center
Wed 10:39:57 PM 39.8453 -87.0422 178° South 416 479 41,000 787 Climbing Indianapolis Center
Wed 10:40:58 PM 39.7303 -87.0361 178° South 412 474 41,000  Level Indianapolis Center
Wed 10:41:59 PM 39.6150 -87.0308 178° South 412 474 41,000  Level Indianapolis Center
Wed 10:43:00 PM 39.5003 -87.0242 177° South 411 473 41,000  Level Indianapolis Center
Wed 10:44:01 PM 39.3872 -87.0192 178° South 407 468 41,000  Level Indianapolis Center
Wed 10:45:02 PM 39.2750 -87.0139 178° South 404 465 41,000  Level Indianapolis Center
Wed 10:46:03 PM 39.1625 -87.0069 177° South 402 463 41,000  Level Indianapolis Center
Wed 10:47:05 PM 39.0514 -87.0022 178° South 400 460 41,000  Level Indianapolis Center
Wed 10:48:06 PM 38.9392 -86.9969 178° South 401 461 41,000  Level Indianapolis Center
Wed 10:49:07 PM 38.8264 -86.9911 178° South 402 463 41,000  Level Indianapolis Center
Wed 10:50:08 PM 38.7131 -86.9861 178° South 404 465 41,000  Level Indianapolis Center
Wed 10:51:09 PM 38.5997 -86.9803 178° South 405 466 41,000  Level Indianapolis Center
Wed 10:52:10 PM 38.4831 -86.9744 178° South 412 474 41,000  Level Indianapolis Center
Wed 10:53:11 PM 38.3564 -86.9681 178° South 416 479 41,000  Level Indianapolis Center
Wed 10:54:12 PM 38.2403 -86.9669 180° South 414 476 41,000  Level Indianapolis Center
Wed 10:55:14 PM 38.1258 -86.9578 176° South 417 480 41,000  Level Indianapolis Center
Wed 10:56:15 PM 38.0100 -86.9531 178° South 414 476 41,000  Level Indianapolis Center
Wed 10:57:16 PM 37.8933 -86.9475 178° South 417 480 41,000  Level Indianapolis Center
Wed 10:58:17 PM 37.7772 -86.9425 178° South 416 479 41,000  Level Indianapolis Center
Wed 10:59:18 PM 37.6597 -86.9372 178° South 420 483 41,000  Level Indianapolis Center
Wed 11:00:19 PM 37.5419 -86.9361 180° South 421 484 41,000  Level Indianapolis Center
Wed 11:01:20 PM 37.4186 -86.9331 179° South 421 484 41,000  Level Indianapolis Center
Wed 11:02:22 PM 37.3000 -86.9319 180° South 422 486 41,000  Level Indianapolis Center
Wed 11:03:23 PM 37.1803 -86.9306 179° South 426 490 41,000  Level Indianapolis Center
Wed 11:04:24 PM 37.0419 -86.9303 180° South 424 488 41,000  Level Indianapolis Center
Wed 11:05:25 PM 36.9225 -86.9281 179° South 425 489 41,000  Level Indianapolis Center
Wed 11:06:26 PM 36.8028 -86.9269 180° South 427 491 41,000  Level Indianapolis Center
Wed 11:07:32 PM 36.6844 -86.9261 180° South 422 486 41,000  Level Memphis Center
Wed 11:08:32 PM 36.5675 -86.9258 180° South 422 486 41,000  Level Memphis Center
Wed 11:09:32 PM 36.4467 -86.9283 181° South 429 494 41,000  Level Memphis Center
Wed 11:10:32 PM 36.3236 -86.9233 178° South 436 502 41,000  Level Memphis Center
Wed 11:11:32 PM 36.2069 -86.9231 180° South 435 501 41,000  Level Memphis Center
Wed 11:12:32 PM 36.0881 -86.9231 180° South 435 501 41,000  Level Memphis Center
Wed 11:13:32 PM 35.9711 -86.9203 179° South 430 495 41,000  Level Memphis Center
Wed 11:14:32 PM 35.8544 -86.9175 179° South 420 483 41,000  Level Memphis Center
Wed 11:15:32 PM 35.7333 -86.9172 180° South 425 489 41,000  Level Memphis Center
Wed 11:17:51 PM 35.4428 -86.9142 180° South 435 501 41,000  Level Atlanta Center
Wed 11:18:51 PM 35.3281 -86.9128 179° South 430 495 41,000 -600 Level Atlanta Center
Wed 11:19:51 PM 35.2028 -86.9136 180° South 435 501 39,800 -2,348 Descending Atlanta Center
Wed 11:21:32 PM 34.9886 -86.9075 179° South 445 512 34,700 -3,205 Descending Memphis Center
Wed 11:22:32 PM 34.8592 -86.9050 179° South 451 519 31,200 -3,400 Descending Memphis Center
Wed 11:23:32 PM 34.7339 -86.9053 180° South 462 532 27,900 -3,050 Descending Memphis Center
Wed 11:24:32 PM 34.6108 -86.9053 180° South 456 525 25,100 -2,430 Descending Memphis Center
Wed 11:24:51 PM 34.5769 -86.9072 183° South 451 519 24,700 -2,203 Descending Atlanta Center
Wed 11:25:51 PM 34.4783 -86.9317 192° South 430 495 22,200 -2,400 Descending Atlanta Center
Wed 11:26:51 PM 34.3811 -86.9736 200° South 393 452 19,900 -2,605 Descending Atlanta Center
Wed 11:27:07 PM 34.3431 -87.0000 210° Southwest 361 415 18,900 -1,800 Descending Atlanta Center
Wed 11:27:51 PM 34.2883 -87.0131 191° South 379 436 18,100 -1,700 Descending Atlanta Center
Wed 11:28:07 PM 34.2489 -87.0117 178° South 345 397 17,200 -2,200 Descending Atlanta Center
Wed 11:28:51 PM 34.1908 -86.9972 168° South 351 404 15,900 -2,262 Descending Atlanta Center
Wed 11:29:08 PM 34.1533 -86.9933 175° South 348 400 14,900 -2,400 Descending Atlanta Center
Wed 11:29:51 PM 34.0953 -86.9786 168° South 346 398 13,500 -2,400 Descending Atlanta Center
Wed 11:30:08 PM 34.0597 -86.9775 179° South 337 388 12,500 -2,231 Descending Atlanta Center
Wed 11:31:09 PM 33.9683 -86.9619 172° South 326 375 10,600 -1,282 Descending Atlanta Center
Wed 11:31:51 PM 33.9186 -86.9453 164° South 341 392 10,300 -590 Descending Atlanta Center
Wed 11:32:10 PM 33.8872 -86.9467 182° South 265 305 10,000 -900 Descending Atlanta Center
Wed 11:32:51 PM 33.8481 -86.9303 161° South 300 345 9,400 -1,200 Descending Atlanta Center
Wed 11:33:10 PM 33.8186 -86.9317 182° South 245 282 8,800 -1,300 Descending Atlanta Center
Wed 11:33:51 PM 33.7794 -86.9203 166° South 272 313 8,100 -1,279 Descending Atlanta Center
Wed 11:34:11 PM 33.7461 -86.9167 175° South 243 280 7,500 -1,300 Descending Atlanta Center
Wed 11:34:51 PM 33.7150 -86.9058 164° South 250 288 6,800 -1,300 Descending Atlanta Center
Wed 11:35:11 PM 33.6861 -86.8922 159° South 242 278 6,200 -900 Descending Atlanta Center
Wed 11:35:51 PM 33.6744 -86.8494 108° East 216 249 5,900 -590 Descending Atlanta Center
Wed 11:36:12 PM 33.6794 -86.8147 80° East 250 288 5,600 -600 Descending Atlanta Center
Wed 11:36:51 PM 33.6847 -86.7725 81° East 191 220 5,300 -590 Descending Atlanta Center
Wed 11:37:13 PM 33.6875 -86.7400 84° East 205 236 5,000 -818 Descending Atlanta Center

Login

Don't have an account? Register now (free) for customized features, flight alerts, and more!